KLAA

Details ICAO KLAA (LAA)
Name LAMAR MUNI
Region United States
Timezone America/Denver (UTC-6.0)
Plans Departing 3
Arriving 5
Stats Elevation 3,706 ft / 1,130 m (AMSL)
Location 38.070144° -102.688118°
Runways 2
Magnetic Variation 6.813° E
Sunrise 2018-05-26 11:33:53 UTC / 2018-05-26 05:33:53 Local
Sunset 2018-05-27 02:04:39 UTC / 2018-05-26 20:04:39 Local
Advertisement - Login to hide

Runways

ID Width Length Bearing (true) Bearing (mag) Surface Threshold Offset Overrun Length
08 60 ft / 18 m 4,990 ft / 1,521 m 89.63° 82.82° Asphalt 0 ft / 0 m 0 ft / 0 m
18 100 ft / 30 m 6,316 ft / 1,925 m 189.58° 182.77° Concrete 0 ft / 0 m 0 ft / 0 m
26 60 ft / 18 m 4,990 ft / 1,521 m 269.64° 262.83° Asphalt 0 ft / 0 m 0 ft / 0 m
36 100 ft / 30 m 6,316 ft / 1,925 m 9.58° 2.77° Concrete 0 ft / 0 m 0 ft / 0 m

Map

Weather


0- 5 10 15 20 25 30 35+ Temperature / ° C

Clouds and Precipitation
Forecast for 2018-05-27 06:00 UTC. Updated 7 minutes ago

Ground ~20,000 ft ~40,000 ft Winds

METAR

KLAA 270453Z AUTO 15016G26KT 10SM CLR 25/11 A2980 RMK AO2 PK WND 15026/0445 SLP027 T02500106 TSNO

TAF

Not found

Frequencies

Recorded 135.62 MHz ASOS
Unicom 122.80 MHz CTAF/UNICOM
Warning: Do not use this data for real-world aviation or navigation. No guarantee of current accuracy is given.